Time;durP1;ratioP1;P1;durP2;ratioP2;P2;SDS_P1;SDS_P2;PMS_P1;PMS_P2;Temp;Humidity;BMP_temperature;BMP_pressure;BME280_temperature;BME280_humidity;BME280_pressure;Samples;Min_cycle;Max_cycle;Signal;HPM_P1;HPM_P2
2023/04/06 00:01:10;;;;;;;21.98;13.10;;;;;;;4.23;65.70;101754.50;4972043;28;20030;-65
2023/04/06 00:03:35;;;;;;;23.58;13.52;;;;;;;4.24;65.11;101752.81;4975200;28;20096;-65
2023/04/06 00:06:00;;;;;;;21.95;13.45;;;;;;;4.23;65.49;101754.50;4974269;28;20462;-65
2023/04/06 00:08:26;;;;;;;22.25;13.30;;;;;;;4.21;65.46;101753.50;4956290;28;20061;-65
2023/04/06 00:10:52;;;;;;;23.75;12.82;;;;;;;4.22;65.21;101741.50;4973218;28;20038;-65
2023/04/06 00:13:17;;;;;;;22.27;13.23;;;;;;;4.22;64.99;101739.81;4969318;28;20116;-65
2023/04/06 00:15:43;;;;;;;23.00;12.57;;;;;;;4.21;64.82;101745.75;4977313;28;20406;-66
2023/04/06 00:18:08;;;;;;;22.48;13.05;;;;;;;4.18;64.77;101741.28;4975682;28;20030;-66
2023/04/06 00:20:33;;;;;;;24.38;13.38;;;;;;;4.17;64.65;101741.19;4977052;28;20054;-66
2023/04/06 00:22:58;;;;;;;21.17;12.73;;;;;;;4.13;64.44;101741.81;4973329;28;20374;-65
2023/04/06 00:25:24;;;;;;;19.77;11.57;;;;;;;4.10;64.81;101736.44;4974337;28;20030;-65
2023/04/06 00:27:49;;;;;;;21.77;12.00;;;;;;;4.07;64.68;101741.41;4976365;28;20058;-65
2023/04/06 00:30:15;;;;;;;22.02;12.30;;;;;;;4.06;65.35;101740.50;4977455;28;20030;-66
2023/04/06 00:32:40;;;;;;;23.55;12.23;;;;;;;4.04;64.74;101736.03;4975144;28;20031;-66
2023/04/06 00:35:06;;;;;;;20.48;12.15;;;;;;;4.02;63.99;101727.31;4977358;28;20150;-65
2023/04/06 00:37:32;;;;;;;20.73;12.45;;;;;;;4.02;65.09;101729.91;4972210;28;20026;-65
2023/04/06 00:39:57;;;;;;;19.52;11.38;;;;;;;3.99;63.69;101723.75;4975537;28;20061;-65
2023/04/06 00:42:26;;;;;;;23.13;12.13;;;;;;;3.98;63.61;101719.41;4974964;28;20058;-65
2023/04/06 00:44:53;;;;;;;20.77;11.60;;;;;;;3.97;63.67;101722.75;4974228;28;20504;-65
2023/04/06 00:47:18;;;;;;;22.85;12.20;;;;;;;3.94;63.49;101711.34;4973699;28;20054;-66
2023/04/06 00:49:44;;;;;;;22.55;12.15;;;;;;;3.89;63.68;101717.91;4976999;28;20524;-65
2023/04/06 00:52:09;;;;;;;21.08;12.25;;;;;;;3.85;63.58;101713.34;4976612;28;20066;-65
2023/04/06 00:54:34;;;;;;;23.33;12.10;;;;;;;3.81;63.90;101709.69;4974736;28;20034;-65
2023/04/06 00:57:00;;;;;;;19.33;11.40;;;;;;;3.76;63.86;101705.91;4958300;28;20026;-65
2023/04/06 00:59:27;;;;;;;19.65;11.30;;;;;;;3.76;63.79;101700.75;4976070;28;20040;-65
2023/04/06 01:01:52;;;;;;;24.73;11.95;;;;;;;3.77;63.76;101695.69;4960386;28;20174;-66
2023/04/06 01:04:18;;;;;;;22.52;12.13;;;;;;;3.77;63.92;101694.81;4977488;28;20113;-65
2023/04/06 01:06:43;;;;;;;21.02;11.85;;;;;;;3.76;63.87;101699.06;4977874;28;20619;-65
2023/04/06 01:09:08;;;;;;;23.08;12.55;;;;;;;3.73;64.12;101692.81;4977658;28;20770;-66
2023/04/06 01:11:35;;;;;;;21.00;12.30;;;;;;;3.70;64.09;101692.63;4975829;28;20505;-65
2023/04/06 01:14:00;;;;;;;21.17;11.98;;;;;;;3.70;64.24;101687.47;4976124;28;20068;-66
2023/04/06 01:16:26;;;;;;;23.92;12.95;;;;;;;3.70;64.34;101684.88;4958801;28;20022;-65
2023/04/06 01:18:51;;;;;;;22.42;12.25;;;;;;;3.69;64.77;101685.69;4976905;28;20112;-66
2023/04/06 01:21:16;;;;;;;22.80;12.98;;;;;;;3.70;64.62;101692.63;4977437;28;20065;-65
2023/04/06 01:23:45;;;;;;;23.95;13.07;;;;;;;3.68;65.25;101689.03;4974426;28;20031;-65
2023/04/06 01:26:10;;;;;;;25.98;13.43;;;;;;;3.64;64.93;101680.22;4976464;28;20608;-65
2023/04/06 01:28:37;;;;;;;23.25;12.40;;;;;;;3.64;65.31;101677.66;4973278;28;20046;-66
2023/04/06 01:31:02;;;;;;;25.13;14.25;;;;;;;3.64;65.36;101678.53;4975163;28;20026;-65
2023/04/06 01:33:27;;;;;;;24.52;14.05;;;;;;;3.60;65.64;101671.38;4973760;28;20494;-65
2023/04/06 01:35:53;;;;;;;25.48;13.93;;;;;;;3.59;65.58;101674.78;4972311;28;20428;-66
2023/04/06 01:38:18;;;;;;;23.27;14.35;;;;;;;3.54;66.54;101677.84;4974994;28;20033;-65
2023/04/06 01:40:43;;;;;;;29.83;15.35;;;;;;;3.47;67.15;101673.97;4973648;28;20030;-66
2023/04/06 01:43:09;;;;;;;30.50;16.55;;;;;;;3.42;67.12;101670.22;4972690;28;20057;-66
2023/04/06 01:45:34;;;;;;;27.60;16.30;;;;;;;3.42;67.05;101668.50;4958911;28;20643;-65
2023/04/06 01:47:59;;;;;;;32.67;16.95;;;;;;;3.41;67.30;101665.84;4973848;28;20145;-66
2023/04/06 01:50:24;;;;;;;30.98;15.90;;;;;;;3.39;66.87;101660.59;4970383;28;20030;-65
2023/04/06 01:52:50;;;;;;;29.13;16.38;;;;;;;3.39;67.17;101658.00;4974415;28;20050;-66
2023/04/06 01:55:15;;;;;;;28.30;16.77;;;;;;;3.36;68.19;101657.81;4973582;28;20031;-65
2023/04/06 01:57:40;;;;;;;29.92;17.20;;;;;;;3.34;68.34;101654.22;4975313;28;20026;-65
2023/04/06 02:00:06;;;;;;;29.50;16.85;;;;;;;3.35;68.49;101652.56;4974025;28;20237;-66
2023/04/06 02:02:32;;;;;;;30.73;17.23;;;;;;;3.36;68.01;101654.31;4968685;28;20705;-66
2023/04/06 02:04:57;;;;;;;31.33;16.98;;;;;;;3.40;67.96;101643.44;4973431;28;20026;-66
2023/04/06 02:07:22;;;;;;;29.10;17.15;;;;;;;3.41;68.81;101635.81;4973442;28;20033;-65
2023/04/06 02:09:47;;;;;;;30.38;16.20;;;;;;;3.42;69.42;101640.19;4976722;28;20038;-65
2023/04/06 02:12:13;;;;;;;27.92;15.88;;;;;;;3.43;69.11;101635.91;4972052;28;20508;-66
2023/04/06 02:14:38;;;;;;;27.52;15.90;;;;;;;3.43;68.80;101634.25;4972687;28;20027;-66
2023/04/06 02:17:03;;;;;;;34.58;17.25;;;;;;;3.42;69.61;101635.03;4956742;28;20512;-65
2023/04/06 02:19:28;;;;;;;31.83;16.88;;;;;;;3.41;70.20;101629.78;4976798;28;20019;-66
2023/04/06 02:21:54;;;;;;;28.90;16.95;;;;;;;3.40;70.28;101635.72;4972660;28;20490;-66
2023/04/06 02:24:19;;;;;;;29.55;17.00;;;;;;;3.39;70.80;101632.25;4957664;28;20026;-65
2023/04/06 02:26:44;;;;;;;29.75;16.85;;;;;;;3.39;70.58;101624.53;4972337;28;20495;-66
2023/04/06 02:29:10;;;;;;;31.45;17.60;;;;;;;3.43;71.27;101620.44;4978365;28;20050;-66
2023/04/06 02:31:36;;;;;;;38.60;17.30;;;;;;;3.50;70.96;101620.06;4977067;28;20046;-66
2023/04/06 02:34:01;;;;;;;30.05;16.67;;;;;;;3.56;70.81;101615.28;4978139;28;20499;-65
2023/04/06 02:36:26;;;;;;;29.73;17.17;;;;;;;3.60;70.98;101616.38;4975747;28;20062;-65
2023/04/06 02:38:51;;;;;;;28.65;15.38;;;;;;;3.62;70.21;101610.56;4976170;28;20054;-66
2023/04/06 02:41:17;;;;;;;33.17;16.58;;;;;;;3.64;70.05;101606.38;4978021;28;20038;-66
2023/04/06 02:43:42;;;;;;;27.77;15.02;;;;;;;3.69;68.92;101603.19;4977820;28;20030;-66
2023/04/06 02:46:07;;;;;;;30.20;16.00;;;;;;;3.71;69.41;101601.59;4978591;28;20030;-66
2023/04/06 02:48:36;;;;;;;29.00;16.70;;;;;;;3.74;69.46;101602.69;4979201;28;20037;-66
2023/04/06 02:51:01;;;;;;;26.40;15.25;;;;;;;3.76;69.70;101605.38;4976953;28;20057;-66
2023/04/06 02:53:27;;;;;;;29.98;16.55;;;;;;;3.77;69.15;101597.75;4975694;28;20126;-66
2023/04/06 02:55:52;;;;;;;29.35;15.48;;;;;;;3.81;69.54;101593.69;4960213;28;20397;-66
2023/04/06 02:58:18;;;;;;;31.85;16.48;;;;;;;3.83;69.62;101594.66;4978349;28;20042;-66
2023/04/06 03:00:43;;;;;;;33.08;16.48;;;;;;;3.82;69.20;101588.63;4959430;28;20037;-66
2023/04/06 03:03:08;;;;;;;32.58;16.70;;;;;;;3.84;68.98;101586.13;4978610;28;20122;-65
2023/04/06 03:05:34;;;;;;;29.40;16.27;;;;;;;3.88;69.14;101584.63;4975767;28;20042;-65
2023/04/06 03:07:59;;;;;;;32.90;16.75;;;;;;;3.90;69.47;101581.34;4977901;28;20144;-66
2023/04/06 03:10:24;;;;;;;30.70;16.58;;;;;;;3.97;70.06;101585.22;4977946;28;20450;-66
2023/04/06 03:12:50;;;;;;;34.78;17.42;;;;;;;4.03;69.39;101584.69;4974967;28;20029;-66
2023/04/06 03:15:15;;;;;;;26.80;15.48;;;;;;;4.07;68.83;101578.91;4976865;28;20033;-65
2023/04/06 03:17:40;;;;;;;31.02;16.70;;;;;;;4.12;67.45;101577.53;4975793;28;20088;-65
2023/04/06 03:20:06;;;;;;;29.15;15.93;;;;;;;4.16;67.34;101582.97;4976889;28;20034;-66
2023/04/06 03:22:32;;;;;;;29.50;16.25;;;;;;;4.19;66.73;101577.13;4975297;28;20030;-65
2023/04/06 03:24:57;;;;;;;28.58;15.73;;;;;;;4.21;67.20;101572.94;4979079;28;20058;-66
2023/04/06 03:27:22;;;;;;;29.90;15.95;;;;;;;4.21;67.62;101569.47;4973207;28;20493;-66
2023/04/06 03:29:48;;;;;;;32.88;16.92;;;;;;;4.20;68.08;101566.00;4973654;28;20034;-66
2023/04/06 03:32:13;;;;;;;31.10;15.98;;;;;;;4.19;68.18;101566.78;4977601;28;20037;-65
2023/04/06 03:34:39;;;;;;;29.02;16.55;;;;;;;4.19;68.72;101566.78;4978244;28;20505;-65
2023/04/06 03:37:05;;;;;;;30.52;16.35;;;;;;;4.19;69.02;101559.06;4977971;28;20498;-66
2023/04/06 03:39:30;;;;;;;28.05;16.35;;;;;;;4.18;68.92;101557.28;4957714;28;20033;-65
2023/04/06 03:41:55;;;;;;;30.88;17.27;;;;;;;4.17;69.60;101561.53;4972062;28;20171;-65
2023/04/06 03:44:21;;;;;;;29.85;16.75;;;;;;;4.16;69.29;101566.63;4969990;28;20031;-66
2023/04/06 03:46:46;;;;;;;28.52;16.23;;;;;;;4.14;69.37;101566.53;4975755;28;20481;-69
2023/04/06 03:49:11;;;;;;;30.15;16.75;;;;;;;4.14;69.27;101565.59;4976251;28;20034;-69
2023/04/06 03:51:36;;;;;;;32.97;17.73;;;;;;;4.16;68.38;101561.44;4977658;28;20034;-69
2023/04/06 03:54:02;;;;;;;28.40;16.27;;;;;;;4.19;68.30;101556.47;4976383;28;20054;-69
2023/04/06 03:56:27;;;;;;;27.50;16.05;;;;;;;4.22;68.40;101556.66;4972682;28;20038;-69
2023/04/06 03:58:52;;;;;;;31.02;16.33;;;;;;;4.24;68.46;101561.91;4975434;28;20137;-69
2023/04/06 04:01:18;;;;;;;29.83;16.33;;;;;;;4.24;69.61;101554.16;4977907;28;20027;-69
2023/04/06 04:03:43;;;;;;;27.13;15.75;;;;;;;4.27;71.04;101559.50;4976099;28;20026;-69
2023/04/06 04:06:09;;;;;;;27.80;15.90;;;;;;;4.29;71.17;101560.53;4974860;28;20489;-69
2023/04/06 04:08:35;;;;;;;27.30;16.35;;;;;;;4.30;70.11;101564.84;4974973;28;20023;-69
2023/04/06 04:11:00;;;;;;;30.40;16.95;;;;;;;4.29;70.83;101557.94;4975156;28;20442;-69
2023/04/06 04:13:26;;;;;;;32.15;17.20;;;;;;;4.26;70.95;101561.22;4976219;28;20093;-69
2023/04/06 04:15:51;;;;;;;25.75;15.68;;;;;;;4.25;70.73;101561.13;4972424;28;20030;-69
2023/04/06 04:18:16;;;;;;;31.05;17.98;;;;;;;4.21;70.70;101562.59;4975127;28;20537;-69
2023/04/06 04:20:42;;;;;;;27.42;15.88;;;;;;;4.15;69.71;101554.50;4977546;28;20022;-69
2023/04/06 04:23:07;;;;;;;33.05;17.92;;;;;;;4.06;70.08;101561.69;4972764;28;20558;-69
2023/04/06 04:25:32;;;;;;;28.17;16.38;;;;;;;3.99;70.37;101556.13;4977933;28;20030;-69
2023/04/06 04:27:57;;;;;;;29.40;16.13;;;;;;;3.94;70.46;101557.56;4973223;28;20313;-69
2023/04/06 04:30:23;;;;;;;31.40;15.63;;;;;;;3.92;70.58;101551.38;4976239;28;20566;-69
2023/04/06 04:32:48;;;;;;;30.10;16.70;;;;;;;3.89;70.52;101561.53;4973398;28;20034;-69
2023/04/06 04:35:13;;;;;;;31.48;16.25;;;;;;;3.88;70.73;101553.69;4975526;28;20052;-69
2023/04/06 04:37:40;;;;;;;32.70;16.70;;;;;;;3.87;70.84;101555.38;4975819;28;20380;-69
2023/04/06 04:40:06;;;;;;;31.83;16.60;;;;;;;3.86;70.20;101555.28;4976810;28;20101;-69
2023/04/06 04:42:32;;;;;;;31.75;16.45;;;;;;;3.86;69.89;101548.44;4973938;28;20169;-69
2023/04/06 04:44:57;;;;;;;30.13;15.65;;;;;;;3.85;69.99;101549.22;4974434;28;20014;-69
2023/04/06 04:47:22;;;;;;;30.17;16.58;;;;;;;3.86;70.44;101544.97;4974385;28;20045;-69
2023/04/06 04:49:47;;;;;;;32.17;16.23;;;;;;;3.85;70.32;101546.66;4976130;28;20061;-69
2023/04/06 04:52:13;;;;;;;30.10;16.55;;;;;;;3.86;69.90;101545.88;4976375;28;20226;-69
2023/04/06 04:54:40;;;;;;;32.83;16.88;;;;;;;3.88;70.38;101553.69;4976197;28;20029;-69
2023/04/06 04:57:06;;;;;;;31.60;16.23;;;;;;;3.86;71.13;101542.41;4973978;28;20038;-65
2023/04/06 04:59:31;;;;;;;32.40;16.48;;;;;;;3.87;70.54;101542.50;4976980;28;20023;-65
2023/04/06 05:01:56;;;;;;;31.33;16.83;;;;;;;3.88;70.07;101543.38;4960137;28;20046;-65
2023/04/06 05:04:22;;;;;;;30.45;16.38;;;;;;;3.91;70.15;101541.91;4977429;28;20616;-66
2023/04/06 05:06:47;;;;;;;30.65;17.13;;;;;;;3.96;69.70;101543.06;4977313;28;20474;-66
2023/04/06 05:09:12;;;;;;;33.38;16.33;;;;;;;3.99;70.47;101543.25;4977274;28;20054;-66
2023/04/06 05:11:38;;;;;;;30.88;16.75;;;;;;;4.03;69.34;101543.44;4976327;28;20644;-66
2023/04/06 05:14:03;;;;;;;28.15;16.52;;;;;;;4.08;68.95;101544.59;4974828;28;20028;-66
2023/04/06 05:16:28;;;;;;;29.23;15.85;;;;;;;4.10;68.72;101541.34;4976932;28;20042;-65
2023/04/06 05:18:56;;;;;;;29.33;15.90;;;;;;;4.13;68.49;101545.81;4977588;28;20109;-65
2023/04/06 05:21:21;;;;;;;31.25;16.30;;;;;;;4.14;68.74;101537.25;4976856;28;20022;-66
2023/04/06 05:23:47;;;;;;;31.35;16.27;;;;;;;4.16;69.38;101545.97;4975055;28;20160;-66
2023/04/06 05:26:12;;;;;;;29.02;16.02;;;;;;;4.14;70.18;101548.47;4976167;28;20019;-66
2023/04/06 05:28:37;;;;;;;31.55;17.13;;;;;;;4.15;70.38;101542.50;4977485;28;20109;-66
2023/04/06 05:31:03;;;;;;;33.67;19.65;;;;;;;4.16;71.55;101549.44;4976033;28;20116;-65
2023/04/06 05:33:29;;;;;;;34.40;19.17;;;;;;;4.14;71.39;101543.31;4973237;28;20537;-65
2023/04/06 05:35:54;;;;;;;33.08;17.13;;;;;;;4.14;70.59;101544.97;4955781;28;20030;-65
2023/04/06 05:38:20;;;;;;;30.58;17.27;;;;;;;4.12;70.76;101550.03;4973466;28;20038;-66
2023/04/06 05:40:45;;;;;;;29.55;16.58;;;;;;;4.09;70.19;101543.81;4973751;28;20062;-66
2023/04/06 05:43:10;;;;;;;32.08;17.45;;;;;;;4.07;71.69;101537.66;4970986;28;21741;-65
2023/04/06 05:45:36;;;;;;;32.78;17.27;;;;;;;4.07;71.77;101536.00;4975047;28;20031;-65
2023/04/06 05:48:02;;;;;;;32.90;17.83;;;;;;;4.06;71.17;101539.38;4973069;28;20109;-66
2023/04/06 05:50:27;;;;;;;32.78;18.15;;;;;;;4.09;70.36;101536.09;4974041;28;20095;-66
2023/04/06 05:52:53;;;;;;;29.50;16.98;;;;;;;4.11;71.25;101535.38;4973744;28;20202;-65
2023/04/06 05:55:18;;;;;;;32.10;17.55;;;;;;;4.13;71.27;101533.78;4974944;28;20402;-66
2023/04/06 05:57:43;;;;;;;33.75;17.88;;;;;;;4.14;71.35;101532.09;4976349;28;20026;-66
2023/04/06 06:00:10;;;;;;;30.55;17.02;;;;;;;4.17;70.65;101534.84;4972764;28;20030;-65
2023/04/06 06:02:35;;;;;;;30.02;17.00;;;;;;;4.21;71.63;101541.97;4970851;28;20095;-65
2023/04/06 06:05:01;;;;;;;31.13;17.27;;;;;;;4.21;72.66;101539.41;4965363;28;20502;-66
2023/04/06 06:07:26;;;;;;;33.30;15.98;;;;;;;4.24;71.54;101534.41;4975520;28;20039;-69
2023/04/06 06:09:51;;;;;;;31.90;17.02;;;;;;;4.28;71.01;101533.81;4974689;28;20045;-69
2023/04/06 06:12:16;;;;;;;33.08;16.70;;;;;;;4.33;72.09;101529.84;4973294;28;20615;-69
2023/04/06 06:14:42;;;;;;;32.90;17.55;;;;;;;4.37;71.83;101548.94;4954595;28;20030;-69
2023/04/06 06:17:08;;;;;;;33.03;17.23;;;;;;;4.44;72.07;101552.81;4972272;28;20045;-69
2023/04/06 06:19:33;;;;;;;32.03;16.77;;;;;;;4.50;71.83;101543.75;4974510;28;20062;-69
2023/04/06 06:22:01;;;;;;;30.85;16.50;;;;;;;4.60;70.13;101549.44;4972875;28;20109;-69
2023/04/06 06:24:26;;;;;;;30.55;16.02;;;;;;;4.68;69.67;101549.09;4958158;28;20667;-69
2023/04/06 06:26:52;;;;;;;29.63;15.52;;;;;;;4.73;68.22;101545.91;4974186;28;20031;-69
2023/04/06 06:29:17;;;;;;;28.27;15.32;;;;;;;4.80;68.13;101540.28;4970252;28;20481;-69
2023/04/06 06:31:42;;;;;;;26.50;14.70;;;;;;;4.84;68.01;101543.13;4972808;28;20109;-69
2023/04/06 06:34:07;;;;;;;28.70;15.82;;;;;;;4.88;68.52;101544.19;4974278;28;20183;-69
2023/04/06 06:36:33;;;;;;;29.83;15.88;;;;;;;4.92;69.46;101532.34;4975593;28;20485;-69
2023/04/06 06:38:59;;;;;;;30.30;15.70;;;;;;;4.97;68.32;101544.72;4972017;28;20092;-69
2023/04/06 06:41:25;;;;;;;31.60;16.35;;;;;;;4.98;70.29;101543.94;4973938;28;20537;-69
2023/04/06 06:43:51;;;;;;;28.30;15.48;;;;;;;5.00;68.70;101546.59;4973093;28;20058;-69
2023/04/06 06:46:16;;;;;;;27.63;15.50;;;;;;;5.02;69.03;101545.00;4972170;28;20109;-69
2023/04/06 06:48:42;;;;;;;29.52;15.98;;;;;;;5.04;69.58;101540.81;4972367;28;20521;-69
2023/04/06 06:51:09;;;;;;;29.80;16.83;;;;;;;5.07;69.33;101534.91;4971009;28;20026;-69
2023/04/06 06:53:35;;;;;;;30.30;16.80;;;;;;;5.09;69.83;101538.50;4973404;28;20033;-69
2023/04/06 06:56:00;;;;;;;31.40;16.25;;;;;;;5.08;69.87;101529.84;4955722;28;20027;-69
2023/04/06 06:58:25;;;;;;;31.60;16.92;;;;;;;5.09;69.85;101533.34;4961234;28;20018;-69
2023/04/06 07:00:55;;;;;;;28.75;15.57;;;;;;;5.11;68.92;101540.34;4975126;28;20172;-69
2023/04/06 07:03:20;;;;;;;;;;;;;;;5.16;68.59;101544.09;4975918;28;20030;-69
2023/04/06 07:05:52;;;;;;;29.48;15.50;;;;;;;5.16;68.50;101541.50;4974731;28;19985;-69
2023/04/06 07:08:18;;;;;;;28.80;15.38;;;;;;;5.17;67.79;101529.47;4975710;28;20113;-69
2023/04/06 07:10:43;;;;;;;30.83;16.15;;;;;;;5.19;68.16;101538.22;4976615;28;20161;-69
2023/04/06 07:13:09;;;;;;;29.05;15.93;;;;;;;5.20;67.67;101532.25;4975806;28;20026;-69
2023/04/06 07:15:34;;;;;;;31.70;15.85;;;;;;;5.23;68.24;101530.72;4979072;28;20413;-69
2023/04/06 07:17:59;;;;;;;29.10;16.17;;;;;;;5.26;67.25;101535.16;4977801;28;20038;-66
2023/04/06 07:20:25;;;;;;;29.98;16.20;;;;;;;5.30;69.38;101531.06;4978374;28;20023;-66
2023/04/06 07:22:50;;;;;;;31.35;16.30;;;;;;;5.33;68.58;101531.22;4962159;28;20030;-66
2023/04/06 07:25:15;;;;;;;31.60;16.30;;;;;;;5.36;68.55;101529.72;4961534;28;20561;-66
2023/04/06 07:27:41;;;;;;;32.78;15.88;;;;;;;5.41;68.30;101527.38;4978244;28;20117;-66
2023/04/06 07:30:07;;;;;;;30.40;15.88;;;;;;;5.45;67.87;101536.22;4975822;28;20548;-66
2023/04/06 07:32:34;;;;;;;29.35;15.82;;;;;;;5.48;67.15;101526.03;4975649;28;20266;-66
2023/04/06 07:34:59;;;;;;;31.83;16.13;;;;;;;5.51;67.10;101532.25;4958492;28;20117;-66
2023/04/06 07:37:25;;;;;;;26.25;15.38;;;;;;;5.56;67.47;101529.91;4976919;28;20481;-66
2023/04/06 07:39:50;;;;;;;30.35;16.33;;;;;;;5.62;67.73;101526.78;4976908;28;20077;-66
2023/04/06 07:42:15;;;;;;;29.08;16.10;;;;;;;5.67;67.38;101522.75;4974739;28;20043;-66
2023/04/06 07:44:41;;;;;;;30.00;14.82;;;;;;;5.73;67.11;101521.38;4976000;28;20030;-66
2023/04/06 07:47:06;;;;;;;26.75;14.95;;;;;;;5.79;67.77;101523.41;4976095;28;20033;-66
2023/04/06 07:49:32;;;;;;;25.02;14.55;;;;;;;5.83;66.50;101519.31;4976155;28;20034;-66
2023/04/06 07:51:58;;;;;;;27.65;15.00;;;;;;;5.86;66.14;101519.47;4977096;28;20042;-66
2023/04/06 07:54:23;;;;;;;27.60;15.20;;;;;;;5.92;67.34;101522.38;4972912;28;20023;-66
2023/04/06 07:56:48;;;;;;;27.85;15.13;;;;;;;5.95;66.45;101517.34;4973864;28;20027;-66
2023/04/06 07:59:14;;;;;;;27.05;14.95;;;;;;;6.00;65.71;101526.28;4976289;28;20033;-66
2023/04/06 08:01:39;;;;;;;28.95;15.32;;;;;;;6.03;65.17;101523.88;4975484;28;20398;-66
2023/04/06 08:04:05;;;;;;;29.98;16.10;;;;;;;6.06;65.97;101517.97;4973143;28;20027;-66
2023/04/06 08:06:30;;;;;;;27.48;16.70;;;;;;;6.08;65.84;101527.59;4972466;28;20133;-66
2023/04/06 08:08:55;;;;;;;28.17;15.57;;;;;;;6.14;66.71;101526.13;4972734;28;20072;-66
2023/04/06 08:11:21;;;;;;;28.98;15.85;;;;;;;6.19;66.59;101519.50;4977098;28;20031;-65
2023/04/06 08:13:46;;;;;;;27.70;15.88;;;;;;;6.24;66.06;101515.44;4973578;28;20034;-66
2023/04/06 08:16:12;;;;;;;30.98;16.17;;;;;;;6.28;66.23;101517.38;4976340;28;20031;-66
2023/04/06 08:18:37;;;;;;;29.83;16.00;;;;;;;6.33;66.39;101521.13;4974669;28;20034;-66
2023/04/06 08:21:02;;;;;;;27.67;15.80;;;;;;;6.40;66.79;101522.31;4974113;28;20065;-66
2023/04/06 08:23:31;;;;;;;28.55;16.55;;;;;;;6.44;66.33;101516.47;5065231;23;20128;-96
2023/04/06 08:25:56;;;;;;;29.95;16.20;;;;;;;6.50;67.24;101521.97;5001763;28;20030;-96
2023/04/06 08:28:27;;;;;;;31.05;15.90;;;;;;;6.56;67.01;101524.88;4991583;28;20030;-96
2023/04/06 08:30:52;;;;;;;33.25;16.60;;;;;;;6.63;67.26;101515.72;4977208;28;20031;-96
2023/04/06 08:33:21;;;;;;;57.03;26.25;;;;;;;6.69;67.22;101522.91;4977201;28;20046;-96
2023/04/06 08:35:54;;;;;;;173.00;63.90;;;;;;;6.75;65.86;101521.50;4984537;28;20038;-96
2023/04/06 08:38:20;;;;;;;31.55;17.10;;;;;;;6.78;65.05;101529.44;4995144;28;20028;-96
2023/04/06 08:40:50;;;;;;;31.20;15.70;;;;;;;6.81;65.53;101523.53;4988488;28;20085;-96
2023/04/06 08:43:19;;;;;;;31.88;16.42;;;;;;;6.87;66.61;101530.72;4995536;23;20057;-66
2023/04/06 08:45:44;;;;;;;28.27;15.55;;;;;;;6.95;67.35;101534.56;5001302;28;20113;-66
2023/04/06 08:48:11;;;;;;;29.83;15.57;;;;;;;7.02;67.51;101530.56;4995168;28;20034;-66
2023/04/06 08:50:38;;;;;;;28.88;16.20;;;;;;;7.08;66.48;101528.28;5001463;28;20485;-66
2023/04/06 08:53:05;;;;;;;31.52;16.02;;;;;;;7.13;66.96;101529.41;4998784;28;20018;-65
2023/04/06 08:55:31;;;;;;;30.92;15.27;;;;;;;7.17;66.51;101533.94;4998725;28;20065;-66
2023/04/06 08:57:56;;;;;;;28.88;15.20;;;;;;;7.25;66.74;101534.28;5000632;28;20711;-66
2023/04/06 09:00:23;;;;;;;30.35;16.08;;;;;;;7.31;66.91;101529.38;5000271;28;20033;-66
2023/04/06 09:02:49;;;;;;;29.58;16.10;;;;;;;7.37;66.61;101524.53;5000480;28;20513;-66
2023/04/06 09:05:15;;;;;;;31.23;16.52;;;;;;;7.43;67.14;101535.16;5001328;28;20030;-66
2023/04/06 09:07:40;;;;;;;31.42;16.17;;;;;;;7.51;66.98;101532.06;4999611;28;20038;-66
2023/04/06 09:10:06;;;;;;;29.23;15.77;;;;;;;7.56;66.70;101535.72;4997848;28;20186;-66
2023/04/06 09:12:32;;;;;;;29.70;17.08;;;;;;;7.64;67.44;101539.59;5000410;28;20532;-66
2023/04/06 09:14:58;;;;;;;31.13;16.92;;;;;;;7.71;67.67;101538.19;5000583;28;20109;-66
2023/04/06 09:17:33;;;;;;;31.38;16.80;;;;;;;7.76;67.30;101542.75;5001920;28;20030;-66
2023/04/06 09:19:59;;;;;;;28.85;16.10;;;;;;;7.82;67.37;101531.75;5003546;28;20025;-66
2023/04/06 09:22:26;;;;;;;31.48;17.15;;;;;;;7.88;68.60;101538.94;5003629;28;20026;-67
2023/04/06 09:24:54;;;;;;;30.83;16.42;;;;;;;7.92;67.73;101538.25;4994300;28;20025;-66
2023/04/06 09:27:33;;;;;;;28.40;16.48;;;;;;;7.96;67.57;101537.59;4992957;28;20466;-66
2023/04/06 09:30:06;;;;;;;30.20;16.33;;;;;;;7.97;68.94;101535.06;4990511;28;20379;-66
2023/04/06 09:32:32;;;;;;;29.73;16.02;;;;;;;8.00;69.69;101540.38;4992201;28;20022;-66
2023/04/06 09:35:10;;;;;;;28.27;15.90;;;;;;;8.06;70.75;101537.19;4987082;28;20496;-66
2023/04/06 09:37:35;;;;;;;27.65;15.38;;;;;;;8.08;70.67;101543.34;4990081;28;20022;-66
2023/04/06 09:40:05;;;;;;;29.88;16.02;;;;;;;8.07;72.18;101528.59;4989546;28;20037;-66
2023/04/06 09:42:31;;;;;;;30.00;16.00;;;;;;;8.07;72.49;101535.50;4988678;28;20046;-66
2023/04/06 09:44:56;;;;;;;27.00;14.50;;;;;;;8.07;71.03;101536.38;4986755;28;20042;-66
2023/04/06 09:47:23;;;;;;;27.13;14.48;;;;;;;8.10;72.09;101539.09;4989018;28;20053;-66
2023/04/06 09:49:53;;;;;;;31.08;15.02;;;;;;;8.14;73.26;101546.22;4989005;28;20021;-66
2023/04/06 09:52:19;;;;;;;23.50;13.90;;;;;;;8.19;72.85;101538.63;4992674;28;20030;-66
2023/04/06 09:54:50;;;;;;;23.15;13.70;;;;;;;8.19;72.17;101533.41;4986908;28;20026;-66
2023/04/06 09:57:28;;;;;;;24.90;13.88;;;;;;;8.17;73.00;101541.16;4988582;28;20041;-66
2023/04/06 10:00:11;;;;;;;24.90;13.70;;;;;;;8.14;73.62;101535.81;4982100;28;20040;-66
2023/04/06 10:03:01;;;;;;;25.00;14.18;;;;;;;8.13;73.90;101528.84;4988021;28;20393;-66
2023/04/06 10:05:43;;;;;;;24.95;14.80;;;;;;;8.11;73.73;101543.47;4980518;28;20580;-66
2023/04/06 10:08:10;;;;;;;30.33;15.65;;;;;;;8.07;74.04;101541.56;4987580;28;20038;-66
2023/04/06 10:10:36;;;;;;;25.13;14.20;;;;;;;8.01;75.49;101539.56;5071019;23;20025;-67
2023/04/06 10:13:03;;;;;;;24.83;14.38;;;;;;;8.00;76.28;101536.91;4983015;28;20034;-66
2023/04/06 10:15:29;;;;;;;26.92;13.75;;;;;;;7.98;78.05;101547.22;4983482;28;20522;-67
2023/04/06 10:17:56;;;;;;;26.10;14.30;;;;;;;7.92;76.77;101543.44;4986341;28;21226;-67
2023/04/06 10:20:27;;;;;;;22.55;12.55;;;;;;;7.89;78.71;101543.31;4980556;28;20159;-66
2023/04/06 10:23:15;;;;;;;22.73;13.18;;;;;;;7.89;79.18;101544.19;4982059;28;20054;-67
2023/04/06 10:25:52;;;;;;;20.08;11.20;;;;;;;7.91;79.93;101544.28;4984162;28;20038;-66
2023/04/06 10:28:19;;;;;;;20.05;10.82;;;;;;;7.90;79.58;101545.09;4983675;28;20057;-67
2023/04/06 10:30:45;;;;;;;19.80;10.98;;;;;;;7.89;80.97;101545.91;4984203;28;20042;-66
2023/04/06 10:33:14;;;;;;;18.40;10.82;;;;;;;7.84;80.59;101545.69;4985250;28;20084;-66
2023/04/06 10:35:40;;;;;;;20.67;11.63;;;;;;;7.83;80.63;101547.41;4985366;28;20030;-66
2023/04/06 10:38:05;;;;;;;18.58;11.25;;;;;;;7.82;81.19;101544.72;4984124;28;20431;-66
2023/04/06 10:40:34;;;;;;;17.98;10.45;;;;;;;7.81;82.01;101551.63;4981538;28;20037;-67
2023/04/06 10:43:13;;;;;;;18.10;10.43;;;;;;;7.81;82.52;101545.56;4983202;28;20034;-66
2023/04/06 10:45:40;;;;;;;18.85;10.70;;;;;;;7.82;82.54;101543.03;4985387;28;20022;-66
2023/04/06 10:48:16;;;;;;;18.80;11.02;;;;;;;7.83;83.25;101538.72;4968131;28;20026;-66
2023/04/06 10:50:45;;;;;;;18.77;10.15;;;;;;;7.84;83.81;101543.09;4984271;28;20049;-66
2023/04/06 10:53:10;;;;;;;21.15;13.57;;;;;;;7.83;82.16;101530.94;4988261;28;20475;-66
2023/04/06 10:55:39;;;;;;;17.70;10.35;;;;;;;7.78;83.89;101530.75;4984321;28;20117;-67
2023/04/06 10:58:08;;;;;;;17.17;9.27;;;;;;;7.75;84.40;101525.41;4989256;28;20105;-67
2023/04/06 11:00:33;;;;;;;15.60;9.07;;;;;;;7.73;84.48;101526.16;4988712;28;20022;-67
2023/04/06 11:03:00;;;;;;;16.08;9.27;;;;;;;7.68;84.81;101523.34;5176755;23;20124;-69
2023/04/06 11:05:26;;;;;;;16.13;8.18;;;;;;;7.70;85.37;101526.91;5000695;28;20169;-69
2023/04/06 11:07:51;;;;;;;14.68;8.10;;;;;;;7.67;85.53;101516.38;5000592;28;20595;-68
2023/04/06 11:10:22;;;;;;;16.73;8.20;;;;;;;7.65;86.37;101515.44;5000103;28;20584;-69
2023/04/06 11:12:53;;;;;;;15.27;8.35;;;;;;;7.62;86.56;101507.50;5000209;28;20481;-68